Grant Township, Michigan
Current Conditions -  °F | °C
As of 8:57 PM on Thursday 18 Dec 2014 (Local Time) from KPHN Reporting Station
Overcast Overcast  
Wind Chill: 18°   Ceiling: 900
Heat Index: 27°   Visibility: 10mi
Dew Point: 25°   Wind: 8mph
Humidity: 93%   Direction: 330°NNW
Pressure: 30.18"   Gusts: NA
Location:  43.1337°N, 82.5933°W
Report Text: KPHN 190157Z AUTO 33007KT 10SM OVC009 M03/M04 A3018 RMK AO2
Loading
Personal Weather Stations






























Interactive Weather Map New forecast layout! Learn more

10-Day Weather Forecast

Advertisements
Track Severe Weather on mobile